Observation data for Northfield on 05/26/2019      Previous  Date  Next       Current Mesonet Observations  Soil Data  Daily Summary Page  Observations in Plain Language
KNOR 260500Z 08008KT 20/18 A2993 RMK A01 T02020175  RH  089%=      5-min Rain = 0
KNOR 260505Z 09007KT 20/18 A2993 RMK A01 T02000175  RH  090%=      5-min Rain = 0
KNOR 260510Z 08006KT 20/17 A2994 RMK A01 T01990174  RH  090%=      5-min Rain = 0
KNOR 260515Z 08006KT 20/17 A2994 RMK A01 T01970174  RH  091%=      5-min Rain = 0
KNOR 260520Z 08006KT 20/17 A2994 RMK A01 T01950174  RH  092%=      5-min Rain = 0
KNOR 260525Z 09007KT 20/18 A2994 RMK A01 T01950175  RH  093%=      5-min Rain = 0
KNOR 260530Z 09008KT 20/18 A2993 RMK A01 T01990180  RH  093%=      5-min Rain = 0
KNOR 260535Z 10008KT 20/18 A2993 RMK A01 T02020183  RH  094%=      5-min Rain = 0
KNOR 260540Z 10007KT 20/18 A2993 RMK A01 T02030184  RH  094%=      5-min Rain = 0
KNOR 260545Z 11007KT 20/19 A2993 RMK A01 T02040186  RH  094%=      5-min Rain = 0
KNOR 260550Z 12008KT 21/19 A2993 RMK A01 T02060188  RH  094%=      5-min Rain = 0
KNOR 260555Z 12008KT 21/19 A2993 RMK A01 T02120193  RH  094%=      5-min Rain = 0
KNOR 260600Z 13010KT 22/20 A2993 RMK A01 T02170195  RH  093%=      5-min Rain = 0
KNOR 260605Z 13010KT 22/20 A2993 RMK A01 T02190195  RH  092%=      5-min Rain = 0
KNOR 260610Z 13010KT 22/20 A2993 RMK A01 T02190195  RH  091%=      5-min Rain = 0
KNOR 260615Z 13010KT 22/19 A2993 RMK A01 T02200194  RH  090%=      5-min Rain = 0
KNOR 260620Z 13009G14KT 22/19 A2993 RMK A01 T02190194  RH  091%=      5-min Rain = 0
KNOR 260625Z 13009KT 22/19 A2993 RMK A01 T02190194  RH  091%=      5-min Rain = 0
KNOR 260630Z 13009KT 22/19 A2993 RMK A01 T02180193  RH  091%=      5-min Rain = 0
KNOR 260635Z 13010KT 22/19 A2993 RMK A01 T02170193  RH  091%=      5-min Rain = 0
KNOR 260640Z 13010KT 22/19 A2993 RMK A01 T02180193  RH  091%=      5-min Rain = 0
KNOR 260645Z 13009KT 22/19 A2993 RMK A01 T02170193  RH  091%=      5-min Rain = 0
KNOR 260650Z 12008KT 22/19 A2993 RMK A01 T02170193  RH  091%=      5-min Rain = 0
KNOR 260655Z 12008KT 22/19 A2993 RMK A01 T02160192  RH  091%=      5-min Rain = 0
KNOR 260700Z 12009KT 22/19 A2993 RMK A01 T02150192  RH  092%=      5-min Rain = 0
KNOR 260705Z 12008KT 22/19 A2993 RMK A01 T02150192  RH  092%=      5-min Rain = 0
KNOR 260710Z 13009KT 21/19 A2993 RMK A01 T02140192  RH  092%=      5-min Rain = 0
KNOR 260715Z 13009KT 21/19 A2993 RMK A01 T02140192  RH  092%=      5-min Rain = 0
KNOR 260720Z 13010G15KT 21/19 A2993 RMK A01 T02140192  RH  092%=      5-min Rain = 0
KNOR 260725Z 14009KT 21/19 A2993 RMK A01 T02140192  RH  092%=      5-min Rain = 0
KNOR 260730Z 14009KT 21/19 A2993 RMK A01 T02130191  RH  092%=      5-min Rain = 0
KNOR 260735Z 14010KT 21/19 A2993 RMK A01 T02130192  RH  092%=      5-min Rain = 0
KNOR 260740Z 14010KT 21/19 A2993 RMK A01 T02140191  RH  092%=      5-min Rain = 0
KNOR 260745Z 13009KT 21/19 A2993 RMK A01 T02130191  RH  092%=      5-min Rain = 0
KNOR 260750Z 13008KT 21/19 A2994 RMK A01 T02130191  RH  092%=      5-min Rain = 0
KNOR 260755Z 13008KT 21/19 A2994 RMK A01 T02120190  RH  093%=      5-min Rain = 0
KNOR 260800Z 13008KT 21/19 A2994 RMK A01 T02110190  RH  093%=      5-min Rain = 0
KNOR 260805Z 13008KT 21/19 A2994 RMK A01 T02100190  RH  093%=      5-min Rain = 0
KNOR 260810Z 14008G13KT 21/19 A2993 RMK A01 T02100190  RH  094%=      5-min Rain = 0
KNOR 260815Z 14008KT 21/19 A2993 RMK A01 T02090190  RH  094%=      5-min Rain = 0
KNOR 260820Z 14008KT 21/19 A2994 RMK A01 T02100190  RH  094%=      5-min Rain = 0
KNOR 260825Z 14009KT 21/19 A2994 RMK A01 T02100190  RH  093%=      5-min Rain = 0
KNOR 260830Z 14009KT 21/19 A2994 RMK A01 T02100190  RH  093%=      5-min Rain = 0
KNOR 260835Z 14009KT 21/19 A2993 RMK A01 T02090189  RH  094%=      5-min Rain = 0
KNOR 260840Z 14008KT 21/19 A2993 RMK A01 T02090189  RH  094%=      5-min Rain = 0
KNOR 260845Z 14008KT 21/19 A2993 RMK A01 T02080189  RH  094%=      5-min Rain = 0
KNOR 260850Z 14008KT 21/19 A2993 RMK A01 T02080189  RH  094%=      5-min Rain = 0
KNOR 260855Z 14008KT 21/19 A2993 RMK A01 T02060188  RH  094%=      5-min Rain = 0
KNOR 260900Z 14007KT 21/19 A2993 RMK A01 T02060188  RH  094%=      5-min Rain = 0
KNOR 260905Z 14007KT 21/19 A2993 RMK A01 T02050187  RH  094%=      5-min Rain = 0
KNOR 260910Z 14007KT 20/19 A2993 RMK A01 T02040187  RH  095%=      5-min Rain = 0
KNOR 260915Z 14007KT 20/19 A2994 RMK A01 T02040187  RH  095%=      5-min Rain = 0
KNOR 260920Z 14007KT 20/19 A2994 RMK A01 T02040186  RH  095%=      5-min Rain = 0
KNOR 260925Z 14006KT 20/19 A2994 RMK A01 T02030186  RH  095%=      5-min Rain = 0
KNOR 260930Z 14006KT 20/19 A2994 RMK A01 T02030186  RH  095%=      5-min Rain = 0
KNOR 260935Z 14006KT 20/19 A2994 RMK A01 T02020185  RH  095%=      5-min Rain = 0
KNOR 260940Z 13006KT 20/19 A2994 RMK A01 T02020185  RH  095%=      5-min Rain = 0
KNOR 260945Z 13007KT 20/18 A2994 RMK A01 T02010184  RH  095%=      5-min Rain = 0
KNOR 260950Z 13007KT 20/19 A2994 RMK A01 T02010185  RH  095%=      5-min Rain = 0
KNOR 260955Z 14007KT 20/18 A2994 RMK A01 T02000184  RH  095%=      5-min Rain = 0
KNOR 261000Z 14007KT 20/18 A2995 RMK A01 T02000184  RH  095%=      5-min Rain = 0
KNOR 261005Z 14007KT 20/19 A2995 RMK A01 T02010185  RH  096%=      5-min Rain = 0
KNOR 261010Z 14007KT 20/19 A2995 RMK A01 T02020186  RH  096%=      5-min Rain = 0
KNOR 261015Z 14007KT 20/19 A2995 RMK A01 T02020186  RH  096%=      5-min Rain = 0
KNOR 261020Z 14007KT 20/19 A2995 RMK A01 T02030187  RH  095%=      5-min Rain = 0
KNOR 261025Z 14006KT 20/19 A2995 RMK A01 T02040187  RH  095%=      5-min Rain = 0
KNOR 261030Z 14006KT 21/19 A2995 RMK A01 T02050188  RH  095%=      5-min Rain = 0
KNOR 261035Z 14005KT 21/19 A2995 RMK A01 T02050188  RH  095%=      5-min Rain = 0
KNOR 261040Z 13006KT 21/19 A2995 RMK A01 T02060188  RH  095%=      5-min Rain = 0
KNOR 261045Z 13007KT 21/19 A2995 RMK A01 T02060188  RH  095%=      5-min Rain = 0
KNOR 261050Z 13007KT 21/19 A2995 RMK A01 T02060188  RH  094%=      5-min Rain = 0
KNOR 261055Z 14006KT 21/19 A2995 RMK A01 T02060188  RH  094%=      5-min Rain = 0
KNOR 261100Z 13007KT 21/19 A2995 RMK A01 T02060188  RH  094%=      5-min Rain = 0
KNOR 261105Z 13006KT 21/19 A2995 RMK A01 T02060188  RH  094%=      5-min Rain = 0
KNOR 261110Z 13006KT 21/19 A2995 RMK A01 T02060188  RH  094%=      5-min Rain = 0
KNOR 261115Z 13006KT 21/19 A2995 RMK A01 T02060188  RH  094%=      5-min Rain = 0
KNOR 261120Z 13006KT 21/19 A2995 RMK A01 T02070188  RH  094%=      5-min Rain = 0
KNOR 261125Z 13006KT 21/19 A2996 RMK A01 T02070188  RH  094%=      5-min Rain = 0
KNOR 261130Z 13007KT 21/19 A2996 RMK A01 T02070188  RH  094%=      5-min Rain = 0
KNOR 261135Z 13007KT 21/19 A2996 RMK A01 T02070188  RH  094%=      5-min Rain = 0
KNOR 261140Z 12008KT 21/19 A2996 RMK A01 T02070188  RH  094%=      5-min Rain = 0
KNOR 261145Z 13007KT 21/19 A2997 RMK A01 T02070188  RH  093%=      5-min Rain = 0
KNOR 261150Z 13007KT 21/19 A2997 RMK A01 T02070187  RH  093%=      5-min Rain = 0
KNOR 261155Z 13007G12KT 21/19 A2997 RMK A01 T02070187  RH  093%=      5-min Rain = 0
KNOR 261200Z 13008KT 21/19 A2998 RMK A01 T02080187  RH  093%=      5-min Rain = 0
KNOR 261205Z 13009KT 21/19 A2998 RMK A01 T02070187  RH  093%=      5-min Rain = 0
KNOR 261210Z 13009KT 21/19 A2998 RMK A01 T02070187  RH  093%=      5-min Rain = 0
KNOR 261215Z 14009KT 21/19 A2998 RMK A01 T02070187  RH  093%=      5-min Rain = 0
KNOR 261220Z 14010KT 21/19 A2999 RMK A01 T02070186  RH  093%=      5-min Rain = 0
KNOR 261225Z 13010G15KT 21/19 A2999 RMK A01 T02070186  RH  093%=      5-min Rain = 0
KNOR 261230Z 14009G14KT 21/19 A2999 RMK A01 T02070186  RH  093%=      5-min Rain = 0
KNOR 261235Z 14009KT 21/19 A2999 RMK A01 T02070186  RH  093%=      5-min Rain = 0
KNOR 261240Z 14010G15KT 21/19 A30 RMK A01 T02070186  RH  093%=      5-min Rain = 0
KNOR 261245Z 14010KT 21/19 A30 RMK A01 T02070186  RH  093%=      5-min Rain = 0
KNOR 261250Z 14011KT 21/19 A30 RMK A01 T02070186  RH  093%=      5-min Rain = 0
KNOR 261255Z 14011KT 21/19 A30 RMK A01 T02070186  RH  093%=      5-min Rain = 0
KNOR 261300Z 14010G15KT 21/19 A30 RMK A01 T02070186  RH  092%=      5-min Rain = 0
KNOR 261305Z 14010KT 21/19 A30 RMK A01 T02070186  RH  092%=      5-min Rain = 0
KNOR 261310Z 14010G15KT 21/19 A3001 RMK A01 T02070186  RH  093%=      5-min Rain = 0
KNOR 261315Z 14010G15KT 21/19 A30 RMK A01 T02070186  RH  093%=      5-min Rain = 0
KNOR 261320Z 13011KT 21/19 A30 RMK A01 T02060186  RH  093%=      5-min Rain = 0
KNOR 261325Z 14011KT 21/19 A30 RMK A01 T02060186  RH  093%=      5-min Rain = 0
KNOR 261330Z 13011G16KT 21/19 A30 RMK A01 T02060187  RH  094%=      5-min Rain = 0
KNOR 261335Z 14011G16KT 21/19 A30 RMK A01 T02060187  RH  094%=      5-min Rain = 0
KNOR 261340Z 14011G16KT 21/19 A30 RMK A01 T02070187  RH  093%=      5-min Rain = 0
KNOR 261345Z 14010G15KT 21/19 A30 RMK A01 T02080187  RH  093%=      5-min Rain = 0
KNOR 261350Z 14012KT 21/19 A30 RMK A01 T02080186  RH  092%=      5-min Rain = 0
KNOR 261355Z 14011G17KT 21/19 A30 RMK A01 T02080186  RH  092%=      5-min Rain = 0
KNOR 261400Z 14013KT 21/19 A3001 RMK A01 T02070186  RH  092%=      5-min Rain = 0
KNOR 261405Z 14012KT 21/19 A3001 RMK A01 T02070186  RH  093%=      5-min Rain = 0
KNOR 261410Z 14012G19KT 21/19 A3001 RMK A01 T02060186  RH  093%=      5-min Rain = 0
KNOR 261415Z 14013KT 21/19 A3001 RMK A01 T02060186  RH  093%=      5-min Rain = 0
KNOR 261420Z 14011KT 21/19 A3001 RMK A01 T02060186  RH  093%=      5-min Rain = 0
KNOR 261425Z 14013KT 21/19 A3001 RMK A01 T02070186  RH  093%=      5-min Rain = 0
KNOR 261430Z 14012G18KT 21/19 A3001 RMK A01 T02080186  RH  092%=      5-min Rain = 0
KNOR 261435Z 14011G16KT 21/19 A3001 RMK A01 T02100185  RH  091%=      5-min Rain = 0
KNOR 261440Z 15011G16KT 21/19 A3001 RMK A01 T02110185  RH  090%=      5-min Rain = 0
KNOR 261445Z 15012G18KT 21/19 A3001 RMK A01 T02130185  RH  089%=      5-min Rain = 0
KNOR 261450Z 15012G17KT 21/19 A3001 RMK A01 T02140185  RH  088%=      5-min Rain = 0
KNOR 261455Z 15011G16KT 22/19 A3001 RMK A01 T02160186  RH  088%=      5-min Rain = 0
KNOR 261500Z 15013KT 22/18 A3001 RMK A01 T02160184  RH  086%=      5-min Rain = 0
KNOR 261505Z 16014G19KT 22/18 A3001 RMK A01 T02170183  RH  085%=      5-min Rain = 0
KNOR 261510Z 16013KT 22/18 A3001 RMK A01 T02180183  RH  085%=      5-min Rain = 0
KNOR 261515Z 16012KT 22/18 A3001 RMK A01 T02180183  RH  085%=      5-min Rain = 0
KNOR 261520Z 16012G17KT 22/18 A3001 RMK A01 T02180183  RH  085%=      5-min Rain = 0
KNOR 261525Z 16010KT 22/18 A3001 RMK A01 T02180183  RH  085%=      5-min Rain = 0
KNOR 261530Z 15011G16KT 22/18 A3001 RMK A01 T02180183  RH  085%=      5-min Rain = 0
KNOR 261535Z 15012G18KT 22/18 A3001 RMK A01 T02160181  RH  085%=      5-min Rain = 0
KNOR 261540Z 15013G18KT 22/18 A3001 RMK A01 T02160181  RH  085%=      5-min Rain = 0
KNOR 261545Z 16012G17KT 22/18 A3001 RMK A01 T02160181  RH  085%=      5-min Rain = 0
KNOR 261550Z 15012KT 22/18 A3001 RMK A01 T02160181  RH  085%=      5-min Rain = 0
KNOR 261555Z 16012KT 22/18 A3001 RMK A01 T02170181  RH  085%=      5-min Rain = 0
KNOR 261600Z 16010G15KT 22/18 A3001 RMK A01 T02190182  RH  084%=      5-min Rain = 0
KNOR 261605Z 16011KT 22/18 A3001 RMK A01 T02180182  RH  084%=      5-min Rain = 0
KNOR 261610Z 15010KT 22/18 A3001 RMK A01 T02180182  RH  084%=      5-min Rain = 0
KNOR 261615Z 16009KT 22/18 A3001 RMK A01 T02190183  RH  084%=      5-min Rain = 0
KNOR 261620Z 16010KT 22/18 A3001 RMK A01 T02190182  RH  084%=      5-min Rain = 0
KNOR 261625Z 16010KT 22/18 A3001 RMK A01 T02190182  RH  084%=      5-min Rain = 0
KNOR 261630Z 15012G17KT 22/18 A3001 RMK A01 T02190181  RH  084%=      5-min Rain = 0
KNOR 261635Z 16012G17KT 22/18 A30 RMK A01 T02190181  RH  083%=      5-min Rain = 0
KNOR 261640Z 16012KT 22/18 A30 RMK A01 T02200181  RH  083%=      5-min Rain = 0
KNOR 261645Z 16011KT 22/18 A30 RMK A01 T02220181  RH  082%=      5-min Rain = 0
KNOR 261650Z 15011G16KT 22/18 A30 RMK A01 T02230181  RH  081%=      5-min Rain = 0
KNOR 261655Z 16012G17KT 22/18 A30 RMK A01 T02240181  RH  081%=      5-min Rain = 0
KNOR 261700Z 16013KT 22/18 A30 RMK A01 T02240180  RH  080%=      5-min Rain = 0
KNOR 261705Z 16013KT 23/18 A30 RMK A01 T02250180  RH  080%=      5-min Rain = 0
KNOR 261710Z 16013KT 23/18 A30 RMK A01 T02250180  RH  080%=      5-min Rain = 0
KNOR 261715Z 16010G16KT 23/18 A30 RMK A01 T02270182  RH  080%=      5-min Rain = 0
KNOR 261720Z 16012G17KT 23/18 A30 RMK A01 T02270180  RH  079%=      5-min Rain = 0
KNOR 261725Z 16012KT 23/18 A30 RMK A01 T02260180  RH  079%=      5-min Rain = 0
KNOR 261730Z 16011G17KT 23/18 A30 RMK A01 T02280181  RH  079%=      5-min Rain = 0
KNOR 261735Z 17013G18KT 23/18 A30 RMK A01 T02280179  RH  078%=      5-min Rain = 0
KNOR 261740Z 16011KT 23/18 A30 RMK A01 T02290180  RH  078%=      5-min Rain = 0
KNOR 261745Z 16012KT 23/18 A30 RMK A01 T02300180  RH  077%=      5-min Rain = 0
KNOR 261750Z 16010G15KT 23/18 A30 RMK A01 T02310180  RH  077%=      5-min Rain = 0
KNOR 261755Z 16012KT 23/18 A30 RMK A01 T02310180  RH  077%=      5-min Rain = 0
KNOR 261800Z 17011KT 23/18 A30 RMK A01 T02310179  RH  077%=      5-min Rain = 0
KNOR 261805Z 16011KT 23/18 A30 RMK A01 T02320180  RH  076%=      5-min Rain = 0
KNOR 261810Z 15012G17KT 23/18 A30 RMK A01 T02320179  RH  076%=      5-min Rain = 0
KNOR 261815Z 16010G16KT 23/18 A30 RMK A01 T02330180  RH  076%=      5-min Rain = 0
KNOR 261820Z 17010KT 23/18 A30 RMK A01 T02340180  RH  076%=      5-min Rain = 0
KNOR 261825Z 17011KT 23/18 A2999 RMK A01 T02340180  RH  076%=      5-min Rain = 0
KNOR 261830Z 16012KT 23/18 A30 RMK A01 T02340180  RH  075%=      5-min Rain = 0
KNOR 261835Z 16010G15KT 23/18 A30 RMK A01 T02330180  RH  076%=      5-min Rain = 0
KNOR 261840Z 16008KT 23/18 A2999 RMK A01 T02340182  RH  076%=      5-min Rain = 0
KNOR 261845Z 16010G15KT 23/18 A2999 RMK A01 T02340181  RH  076%=      5-min Rain = 0
KNOR 261850Z 16010KT 24/18 A2999 RMK A01 T02350181  RH  076%=      5-min Rain = 0
KNOR 261855Z 16011G17KT 24/18 A2999 RMK A01 T02350180  RH  075%=      5-min Rain = 0
KNOR 261900Z 15008KT 24/18 A2999 RMK A01 T02350182  RH  076%=      5-min Rain = 0
KNOR 261905Z 16007KT 24/18 A2999 RMK A01 T02350182  RH  076%=      5-min Rain = 0
KNOR 261910Z 15008KT 24/18 A2999 RMK A01 T02350183  RH  076%=      5-min Rain = 0
KNOR 261915Z 15009KT 24/18 A2998 RMK A01 T02350182  RH  076%=      5-min Rain = 0
KNOR 261920Z 16009KT 24/18 A2998 RMK A01 T02350183  RH  077%=      5-min Rain = 0
KNOR 261925Z 16009KT 24/18 A2998 RMK A01 T02360183  RH  076%=      5-min Rain = 0
KNOR 261930Z 16012KT 24/18 A2998 RMK A01 T02370183  RH  076%=      5-min Rain = 0
KNOR 261935Z 15009G14KT 24/18 A2998 RMK A01 T02370184  RH  076%=      5-min Rain = 0
KNOR 261940Z 16010KT 24/18 A2998 RMK A01 T02380184  RH  076%=      5-min Rain = 0
KNOR 261945Z 16011KT 24/18 A2998 RMK A01 T02370183  RH  076%=      5-min Rain = 0
KNOR 261950Z 16011KT 24/18 A2998 RMK A01 T02370183  RH  076%=      5-min Rain = 0
KNOR 261955Z 16010KT 24/18 A2998 RMK A01 T02380184  RH  076%=      5-min Rain = 0
KNOR 262000Z 17010KT 24/19 A2999 RMK A01 T02390185  RH  076%=      5-min Rain = 0
KNOR 262005Z 17009KT 24/19 A2999 RMK A01 T02380185  RH  076%=      5-min Rain = 0
KNOR 262010Z 17009KT 24/19 A2999 RMK A01 T02380186  RH  077%=      5-min Rain = 0
KNOR 262015Z 17008KT 24/19 A2999 RMK A01 T02380187  RH  077%=      5-min Rain = 0
KNOR 262020Z 17008KT 24/19 A2999 RMK A01 T02390187  RH  077%=      5-min Rain = 0
KNOR 262025Z 17008KT 24/19 A2998 RMK A01 T02360189  RH  079%=      5-min Rain = 0
KNOR 262030Z 18009KT 23/19 A2998 RMK A01 T02320191  RH  082%=      5-min Rain = 0
KNOR 262035Z 18007KT 23/19 A2998 RMK A01 T02280193  RH  085%=      5-min Rain = 0
KNOR 262040Z 17008KT 23/19 A2998 RMK A01 T02290193  RH  085%=      5-min Rain = 0
KNOR 262045Z 18007KT 23/19 A2998 RMK A01 T02310194  RH  085%=      5-min Rain = 0
KNOR 262050Z 17007KT 23/20 A2998 RMK A01 T02330195  RH  084%=      5-min Rain = 0
KNOR 262055Z 17010KT 23/19 A2998 RMK A01 T02340192  RH  082%=      5-min Rain = 0
KNOR 262100Z 17008G13KT 23/19 A2997 RMK A01 T02340193  RH  082%=      5-min Rain = 0
KNOR 262105Z 17009KT 23/19 A2997 RMK A01 T02340194  RH  083%=      5-min Rain = 0
KNOR 262110Z 16010KT 24/20 A2996 RMK A01 T02370195  RH  082%=      5-min Rain = 0
KNOR 262115Z 17009KT 24/20 A2996 RMK A01 T02410196  RH  081%=      5-min Rain = 0
KNOR 262120Z 17009KT 25/20 A2996 RMK A01 T02450197  RH  079%=      5-min Rain = 0
KNOR 262125Z 18011KT 25/19 A2996 RMK A01 T02450194  RH  078%=      5-min Rain = 0
KNOR 262130Z 18009G14KT 25/20 A2996 RMK A01 T02450196  RH  078%=      5-min Rain = 0
KNOR 262135Z 18011KT 25/20 A2995 RMK A01 T02470195  RH  077%=      5-min Rain = 0
KNOR 262140Z 19011G16KT 25/19 A2995 RMK A01 T02460194  RH  077%=      5-min Rain = 0
KNOR 262145Z 19012G19KT 24/19 A2995 RMK A01 T02430193  RH  078%=      5-min Rain = 0
KNOR 262150Z 19012G17KT 24/19 A2995 RMK A01 T02400193  RH  079%=      5-min Rain = 0
KNOR 262155Z 19012KT 24/19 A2994 RMK A01 T02420193  RH  078%=      5-min Rain = 0
KNOR 262200Z 18011G17KT 25/19 A2994 RMK A01 T02450194  RH  077%=      5-min Rain = 0
KNOR 262205Z 18013KT 25/19 A2994 RMK A01 T02450191  RH  076%=      5-min Rain = 0
KNOR 262210Z 18014G19KT 25/19 A2994 RMK A01 T02450192  RH  076%=      5-min Rain = 0
KNOR 262215Z 17013G18KT 25/19 A2993 RMK A01 T02460193  RH  076%=      5-min Rain = 0
KNOR 262220Z 16013G18KT 25/19 A2992 RMK A01 T02480193  RH  076%=      5-min Rain = 0
KNOR 262225Z 16013KT 25/19 A2992 RMK A01 T02470193  RH  076%=      5-min Rain = 0
KNOR 262230Z 15012KT 25/19 A2991 RMK A01 T02470194  RH  076%=      5-min Rain = 0
KNOR 262235Z 15012G17KT 25/19 A2991 RMK A01 T02460194  RH  077%=      5-min Rain = 0
KNOR 262240Z 15012KT 25/20 A2991 RMK A01 T02460195  RH  077%=      5-min Rain = 0
KNOR 262245Z 14011G17KT 25/20 A299 RMK A01 T02470195  RH  077%=      5-min Rain = 0
KNOR 262250Z 14014G20KT 25/19 A299 RMK A01 T02480194  RH  076%=      5-min Rain = 0
KNOR 262255Z 15014G21KT 25/19 A299 RMK A01 T02480193  RH  076%=      5-min Rain = 0
KNOR 262300Z 15013G18KT 25/19 A299 RMK A01 T02480194  RH  076%=      5-min Rain = 0
KNOR 262305Z 15015KT 25/19 A299 RMK A01 T02470192  RH  076%=      5-min Rain = 0
KNOR 262310Z 15014G19KT 25/19 A299 RMK A01 T02460192  RH  076%=      5-min Rain = 0
KNOR 262315Z 15014G20KT 25/19 A2989 RMK A01 T02450192  RH  077%=      5-min Rain = 0
KNOR 262320Z 15014KT 25/19 A299 RMK A01 T02450192  RH  077%=      5-min Rain = 0
KNOR 262325Z 15013KT 25/19 A299 RMK A01 T02450193  RH  077%=      5-min Rain = 0
KNOR 262330Z 14014KT 24/19 A2989 RMK A01 T02440193  RH  077%=      5-min Rain = 0
KNOR 262335Z 15013KT 24/19 A2989 RMK A01 T02440193  RH  078%=      5-min Rain = 0
KNOR 262340Z 15013G18KT 24/19 A2988 RMK A01 T02440194  RH  078%=      5-min Rain = 0
KNOR 262345Z 14014G20KT 24/19 A2988 RMK A01 T02440194  RH  078%=      5-min Rain = 0
KNOR 262350Z 14014G21KT 25/19 A2987 RMK A01 T02450194  RH  077%=      5-min Rain = 0
KNOR 262355Z 14015G21KT 25/19 A2987 RMK A01 T02450193  RH  077%=      5-min Rain = 0
KNOR 270000Z 14014G20KT 25/19 A2986 RMK A01 T02460194  RH  077%=      5-min Rain = 0
KNOR 270005Z 14014KT 25/19 A2986 RMK A01 T02460193  RH  077%=      5-min Rain = 0
KNOR 270010Z 14013G19KT 25/19 A2985 RMK A01 T02450193  RH  077%=      5-min Rain = 0
KNOR 270015Z 14013G21KT 25/19 A2985 RMK A01 T02450193  RH  077%=      5-min Rain = 0
KNOR 270020Z 15012G18KT 25/19 A2986 RMK A01 T02450192  RH  077%=      5-min Rain = 0
KNOR 270025Z 15014G22KT 25/19 A2985 RMK A01 T02450192  RH  076%=      5-min Rain = 0
KNOR 270030Z 14015KT 25/19 A2984 RMK A01 T02450191  RH  076%=      5-min Rain = 0
KNOR 270035Z 13015G21KT 25/19 A2983 RMK A01 T02450192  RH  076%=      5-min Rain = 0
KNOR 270040Z 14016G22KT 25/19 A2983 RMK A01 T02490192  RH  075%=      5-min Rain = 0
KNOR 270045Z 15015G22KT 25/19 A2983 RMK A01 T02510192  RH  074%=      5-min Rain = 0
KNOR 270050Z 15016G23KT 25/19 A2983 RMK A01 T02500191  RH  074%=      5-min Rain = 0
KNOR 270055Z 15017G23KT 25/19 A2983 RMK A01 T02490190  RH  074%=      5-min Rain = 0
KNOR 270100Z 15018G23KT 25/19 A2983 RMK A01 T02490190  RH  074%=      5-min Rain = 0
KNOR 270105Z 15016KT 25/19 A2982 RMK A01 T02480190  RH  074%=      5-min Rain = 0
KNOR 270110Z 15014KT 25/19 A2982 RMK A01 T02450190  RH  076%=      5-min Rain = 0
KNOR 270115Z 15014G19KT 24/19 A2982 RMK A01 T02420190  RH  077%=      5-min Rain = 0
KNOR 270120Z 14013G19KT 24/19 A2982 RMK A01 T02400190  RH  077%=      5-min Rain = 0
KNOR 270125Z 15012KT 24/19 A2982 RMK A01 T02380189  RH  078%=      5-min Rain = 0
KNOR 270130Z 15012G17KT 24/19 A2982 RMK A01 T02380189  RH  078%=      5-min Rain = 0
KNOR 270135Z 15012KT 24/19 A2982 RMK A01 T02370189  RH  079%=      5-min Rain = 0.01
KNOR 270140Z 15012KT 24/19 A2982 RMK A01 T02370188  RH  078%=      5-min Rain = 0
KNOR 270145Z 15013KT 24/19 A2982 RMK A01 T02370188  RH  078%=      5-min Rain = 0
KNOR 270150Z 15013G18KT 24/19 A2983 RMK A01 T02370187  RH  078%=      5-min Rain = 0
KNOR 270155Z 16013G18KT 24/19 A2984 RMK A01 T02370186  RH  077%=      5-min Rain = 0
KNOR 270200Z 16012KT 24/19 A2984 RMK A01 T02360186  RH  078%=      5-min Rain = 0
KNOR 270205Z 16012KT 24/19 A2984 RMK A01 T02350186  RH  078%=      5-min Rain = 0
KNOR 270210Z 16011KT 23/19 A2984 RMK A01 T02340185  RH  078%=      5-min Rain = 0
KNOR 270215Z 16012KT 23/19 A2984 RMK A01 T02340185  RH  078%=      5-min Rain = 0
KNOR 270220Z 16012KT 23/18 A2984 RMK A01 T02340184  RH  078%=      5-min Rain = 0
KNOR 270225Z 16010KT 23/18 A2984 RMK A01 T02330184  RH  078%=      5-min Rain = 0
KNOR 270230Z 16008KT 23/18 A2985 RMK A01 T02320184  RH  078%=      5-min Rain = 0
KNOR 270235Z 16008KT 23/18 A2986 RMK A01 T02310184  RH  079%=      5-min Rain = 0
KNOR 270240Z 16007KT 23/18 A2987 RMK A01 T02320184  RH  079%=      5-min Rain = 0
KNOR 270245Z 16007KT 23/18 A2987 RMK A01 T02330184  RH  078%=      5-min Rain = 0
KNOR 270250Z 15008KT 23/18 A2987 RMK A01 T02330183  RH  077%=      5-min Rain = 0
KNOR 270255Z 15008KT 23/18 A2987 RMK A01 T02300182  RH  078%=      5-min Rain = 0
KNOR 270300Z 15009KT 23/18 A2987 RMK A01 T02300182  RH  078%=      5-min Rain = 0
KNOR 270305Z 15008KT 23/18 A2987 RMK A01 T02300181  RH  078%=      5-min Rain = 0
KNOR 270310Z 14008KT 23/18 A2987 RMK A01 T02280181  RH  078%=      5-min Rain = 0
KNOR 270315Z 14007KT 23/18 A2986 RMK A01 T02270180  RH  079%=      5-min Rain = 0
KNOR 270320Z 14007KT 23/18 A2987 RMK A01 T02260180  RH  079%=      5-min Rain = 0
KNOR 270325Z 14008KT 22/18 A2986 RMK A01 T02230179  RH  080%=      5-min Rain = 0
KNOR 270330Z 14009KT 22/18 A2986 RMK A01 T02230179  RH  080%=      5-min Rain = 0
KNOR 270335Z 14009KT 22/18 A2986 RMK A01 T02230179  RH  080%=      5-min Rain = 0
KNOR 270340Z 15009KT 22/18 A2986 RMK A01 T02220179  RH  081%=      5-min Rain = 0
KNOR 270345Z 15008KT 22/18 A2986 RMK A01 T02220179  RH  081%=      5-min Rain = 0
KNOR 270350Z 14009KT 22/18 A2986 RMK A01 T02210178  RH  081%=      5-min Rain = 0
KNOR 270355Z 14008KT 22/18 A2986 RMK A01 T02210178  RH  081%=      5-min Rain = 0
KNOR 270400Z 14008KT 22/18 A2986 RMK A01 T02200178  RH  082%=      5-min Rain = 0
KNOR 270405Z 14007KT 22/18 A2987 RMK A01 T02180178  RH  082%=      5-min Rain = 0
KNOR 270410Z 14007KT 22/18 A2987 RMK A01 T02170178  RH  083%=      5-min Rain = 0
KNOR 270415Z 14008KT 22/18 A2986 RMK A01 T02150178  RH  083%=      5-min Rain = 0
KNOR 270420Z 14009KT 22/18 A2986 RMK A01 T02150178  RH  084%=      5-min Rain = 0
KNOR 270425Z 14010KT 21/18 A2985 RMK A01 T02140178  RH  084%=      5-min Rain = 0
KNOR 270430Z 14010KT 21/18 A2985 RMK A01 T02140178  RH  084%=      5-min Rain = 0
KNOR 270435Z 14010KT 22/18 A2985 RMK A01 T02150178  RH  084%=      5-min Rain = 0
KNOR 270440Z 14011KT 22/18 A2984 RMK A01 T02150178  RH  084%=      5-min Rain = 0
KNOR 270445Z 14009KT 21/18 A2985 RMK A01 T02140178  RH  084%=      5-min Rain = 0
KNOR 270450Z 14009KT 21/18 A2985 RMK A01 T02130178  RH  085%=      5-min Rain = 0
KNOR 270455Z 14009KT 21/18 A2984 RMK A01 T02120178  RH  085%=      5-min Rain = 0

Page generated in 0.0091 seconds.